sensor_id;sensor_type;location;lat;lon;timestamp;P1;durP1;ratioP1;P2;durP2;ratioP2
22318;SDS011;11327;52.334;9.506;2024-03-02T00:02:15;14.35;;;10.68;;
22318;SDS011;11327;52.334;9.506;2024-03-02T00:05:36;16.52;;;11.10;;
22318;SDS011;11327;52.334;9.506;2024-03-02T00:08:58;14.40;;;10.75;;
22318;SDS011;11327;52.334;9.506;2024-03-02T00:12:19;15.55;;;10.93;;
22318;SDS011;11327;52.334;9.506;2024-03-02T00:15:47;15.00;;;11.10;;
22318;SDS011;11327;52.334;9.506;2024-03-02T00:19:11;15.45;;;10.15;;
22318;SDS011;11327;52.334;9.506;2024-03-02T00:22:32;15.03;;;10.85;;
22318;SDS011;11327;52.334;9.506;2024-03-02T00:25:57;14.07;;;10.28;;
22318;SDS011;11327;52.334;9.506;2024-03-02T00:29:20;13.05;;;9.80;;
22318;SDS011;11327;52.334;9.506;2024-03-02T00:32:42;15.65;;;10.58;;
22318;SDS011;11327;52.334;9.506;2024-03-02T00:36:03;15.15;;;10.75;;
22318;SDS011;11327;52.334;9.506;2024-03-02T00:39:25;12.43;;;8.95;;
22318;SDS011;11327;52.334;9.506;2024-03-02T00:42:45;12.03;;;8.75;;
22318;SDS011;11327;52.334;9.506;2024-03-02T00:46:06;10.68;;;7.72;;
22318;SDS011;11327;52.334;9.506;2024-03-02T00:49:28;10.43;;;8.15;;
22318;SDS011;11327;52.334;9.506;2024-03-02T00:52:49;10.48;;;7.97;;
22318;SDS011;11327;52.334;9.506;2024-03-02T00:56:10;11.30;;;7.85;;
22318;SDS011;11327;52.334;9.506;2024-03-02T00:59:32;10.32;;;7.80;;
22318;SDS011;11327;52.334;9.506;2024-03-02T01:02:53;11.97;;;8.30;;
22318;SDS011;11327;52.334;9.506;2024-03-02T01:06:13;10.25;;;7.78;;
22318;SDS011;11327;52.334;9.506;2024-03-02T01:09:34;12.00;;;7.62;;
22318;SDS011;11327;52.334;9.506;2024-03-02T01:12:55;13.48;;;7.95;;
22318;SDS011;11327;52.334;9.506;2024-03-02T01:16:16;10.98;;;8.03;;
22318;SDS011;11327;52.334;9.506;2024-03-02T01:19:37;12.58;;;8.45;;
22318;SDS011;11327;52.334;9.506;2024-03-02T01:22:58;12.13;;;8.65;;
22318;SDS011;11327;52.334;9.506;2024-03-02T01:26:19;12.00;;;8.85;;
22318;SDS011;11327;52.334;9.506;2024-03-02T01:29:40;13.58;;;9.15;;
22318;SDS011;11327;52.334;9.506;2024-03-02T01:33:01;12.78;;;9.00;;
22318;SDS011;11327;52.334;9.506;2024-03-02T01:36:22;12.93;;;9.40;;
22318;SDS011;11327;52.334;9.506;2024-03-02T01:39:43;12.23;;;9.33;;
22318;SDS011;11327;52.334;9.506;2024-03-02T01:43:04;12.55;;;8.58;;
22318;SDS011;11327;52.334;9.506;2024-03-02T01:46:25;11.68;;;8.50;;
22318;SDS011;11327;52.334;9.506;2024-03-02T01:49:46;10.80;;;8.03;;
22318;SDS011;11327;52.334;9.506;2024-03-02T01:53:07;12.47;;;8.93;;
22318;SDS011;11327;52.334;9.506;2024-03-02T01:56:29;12.93;;;8.45;;
22318;SDS011;11327;52.334;9.506;2024-03-02T01:59:49;10.70;;;8.13;;
22318;SDS011;11327;52.334;9.506;2024-03-02T02:03:11;11.48;;;8.80;;
22318;SDS011;11327;52.334;9.506;2024-03-02T02:06:32;12.07;;;8.25;;
22318;SDS011;11327;52.334;9.506;2024-03-02T02:09:53;12.93;;;8.85;;
22318;SDS011;11327;52.334;9.506;2024-03-02T02:13:14;12.33;;;9.03;;
22318;SDS011;11327;52.334;9.506;2024-03-02T02:16:34;13.50;;;9.60;;
22318;SDS011;11327;52.334;9.506;2024-03-02T02:19:55;12.70;;;9.13;;
22318;SDS011;11327;52.334;9.506;2024-03-02T02:23:16;12.78;;;9.18;;
22318;SDS011;11327;52.334;9.506;2024-03-02T02:26:37;14.05;;;9.53;;
22318;SDS011;11327;52.334;9.506;2024-03-02T02:29:57;14.28;;;9.35;;
22318;SDS011;11327;52.334;9.506;2024-03-02T02:33:18;14.38;;;9.78;;
22318;SDS011;11327;52.334;9.506;2024-03-02T02:36:39;13.45;;;9.73;;
22318;SDS011;11327;52.334;9.506;2024-03-02T02:40:00;14.50;;;9.23;;
22318;SDS011;11327;52.334;9.506;2024-03-02T02:43:21;13.48;;;9.65;;
22318;SDS011;11327;52.334;9.506;2024-03-02T02:46:42;13.85;;;9.85;;
22318;SDS011;11327;52.334;9.506;2024-03-02T02:50:03;15.25;;;9.93;;
22318;SDS011;11327;52.334;9.506;2024-03-02T02:53:24;14.98;;;10.75;;
22318;SDS011;11327;52.334;9.506;2024-03-02T02:56:45;15.45;;;10.85;;
22318;SDS011;11327;52.334;9.506;2024-03-02T03:00:09;16.90;;;11.55;;
22318;SDS011;11327;52.334;9.506;2024-03-02T03:03:33;15.45;;;10.50;;
22318;SDS011;11327;52.334;9.506;2024-03-02T03:06:54;16.77;;;11.68;;
22318;SDS011;11327;52.334;9.506;2024-03-02T03:10:15;19.32;;;12.10;;
22318;SDS011;11327;52.334;9.506;2024-03-02T03:13:37;20.17;;;13.22;;
22318;SDS011;11327;52.334;9.506;2024-03-02T03:16:57;20.65;;;13.85;;
22318;SDS011;11327;52.334;9.506;2024-03-02T03:20:18;21.52;;;14.65;;
22318;SDS011;11327;52.334;9.506;2024-03-02T03:23:39;21.23;;;14.28;;
22318;SDS011;11327;52.334;9.506;2024-03-02T03:27:00;21.37;;;14.30;;
22318;SDS011;11327;52.334;9.506;2024-03-02T03:30:21;22.35;;;14.70;;
22318;SDS011;11327;52.334;9.506;2024-03-02T03:33:42;21.33;;;14.28;;
22318;SDS011;11327;52.334;9.506;2024-03-02T03:37:02;25.05;;;15.45;;
22318;SDS011;11327;52.334;9.506;2024-03-02T03:40:23;26.55;;;15.98;;
22318;SDS011;11327;52.334;9.506;2024-03-02T03:43:44;24.50;;;15.70;;
22318;SDS011;11327;52.334;9.506;2024-03-02T03:47:05;26.30;;;15.72;;
22318;SDS011;11327;52.334;9.506;2024-03-02T03:50:26;25.80;;;16.35;;
22318;SDS011;11327;52.334;9.506;2024-03-02T03:53:47;23.87;;;16.32;;
22318;SDS011;11327;52.334;9.506;2024-03-02T03:57:07;27.45;;;17.00;;
22318;SDS011;11327;52.334;9.506;2024-03-02T04:00:28;28.30;;;17.40;;
22318;SDS011;11327;52.334;9.506;2024-03-02T04:03:49;27.27;;;17.12;;
22318;SDS011;11327;52.334;9.506;2024-03-02T04:07:09;30.15;;;18.37;;
22318;SDS011;11327;52.334;9.506;2024-03-02T04:10:30;29.35;;;17.62;;
22318;SDS011;11327;52.334;9.506;2024-03-02T04:13:51;29.40;;;18.40;;
22318;SDS011;11327;52.334;9.506;2024-03-02T04:17:11;30.45;;;18.15;;
22318;SDS011;11327;52.334;9.506;2024-03-02T04:20:33;36.30;;;19.85;;
22318;SDS011;11327;52.334;9.506;2024-03-02T04:23:54;29.72;;;18.60;;
22318;SDS011;11327;52.334;9.506;2024-03-02T04:27:16;34.90;;;19.02;;
22318;SDS011;11327;52.334;9.506;2024-03-02T04:30:37;32.88;;;19.12;;
22318;SDS011;11327;52.334;9.506;2024-03-02T04:33:58;32.17;;;19.40;;
22318;SDS011;11327;52.334;9.506;2024-03-02T04:37:19;31.40;;;19.23;;
22318;SDS011;11327;52.334;9.506;2024-03-02T04:40:40;32.05;;;19.15;;
22318;SDS011;11327;52.334;9.506;2024-03-02T04:44:00;32.45;;;19.15;;
22318;SDS011;11327;52.334;9.506;2024-03-02T04:47:22;32.05;;;19.05;;
22318;SDS011;11327;52.334;9.506;2024-03-02T04:50:43;30.80;;;18.75;;
22318;SDS011;11327;52.334;9.506;2024-03-02T04:54:03;33.30;;;19.62;;
22318;SDS011;11327;52.334;9.506;2024-03-02T04:57:24;31.60;;;18.60;;
22318;SDS011;11327;52.334;9.506;2024-03-02T05:00:45;30.02;;;17.60;;
22318;SDS011;11327;52.334;9.506;2024-03-02T05:04:07;31.77;;;18.95;;
22318;SDS011;11327;52.334;9.506;2024-03-02T05:07:27;29.87;;;18.40;;
22318;SDS011;11327;52.334;9.506;2024-03-02T05:10:48;29.63;;;17.95;;
22318;SDS011;11327;52.334;9.506;2024-03-02T05:14:09;30.20;;;18.40;;
22318;SDS011;11327;52.334;9.506;2024-03-02T05:17:29;32.25;;;18.52;;
22318;SDS011;11327;52.334;9.506;2024-03-02T05:20:50;33.73;;;19.70;;
22318;SDS011;11327;52.334;9.506;2024-03-02T05:24:11;31.68;;;19.12;;
22318;SDS011;11327;52.334;9.506;2024-03-02T05:27:32;31.00;;;17.77;;
22318;SDS011;11327;52.334;9.506;2024-03-02T05:30:55;34.00;;;19.40;;
22318;SDS011;11327;52.334;9.506;2024-03-02T05:34:16;36.45;;;19.67;;
22318;SDS011;11327;52.334;9.506;2024-03-02T05:37:37;33.78;;;19.37;;
22318;SDS011;11327;52.334;9.506;2024-03-02T05:40:57;31.52;;;18.92;;
22318;SDS011;11327;52.334;9.506;2024-03-02T05:44:18;32.70;;;19.70;;
22318;SDS011;11327;52.334;9.506;2024-03-02T05:47:39;33.50;;;19.92;;
22318;SDS011;11327;52.334;9.506;2024-03-02T05:51:00;35.48;;;19.52;;
22318;SDS011;11327;52.334;9.506;2024-03-02T05:54:21;34.70;;;19.85;;
22318;SDS011;11327;52.334;9.506;2024-03-02T05:57:42;36.13;;;20.85;;
22318;SDS011;11327;52.334;9.506;2024-03-02T06:01:07;35.13;;;20.23;;
22318;SDS011;11327;52.334;9.506;2024-03-02T06:04:28;38.15;;;21.60;;
22318;SDS011;11327;52.334;9.506;2024-03-02T06:07:49;37.20;;;21.30;;
22318;SDS011;11327;52.334;9.506;2024-03-02T06:11:09;38.02;;;22.17;;
22318;SDS011;11327;52.334;9.506;2024-03-02T06:14:30;42.15;;;22.40;;
22318;SDS011;11327;52.334;9.506;2024-03-02T06:17:51;40.78;;;22.58;;
22318;SDS011;11327;52.334;9.506;2024-03-02T06:21:11;39.13;;;22.05;;
22318;SDS011;11327;52.334;9.506;2024-03-02T06:24:32;39.58;;;21.30;;
22318;SDS011;11327;52.334;9.506;2024-03-02T06:27:53;35.35;;;21.45;;
22318;SDS011;11327;52.334;9.506;2024-03-02T06:31:14;39.42;;;22.62;;
22318;SDS011;11327;52.334;9.506;2024-03-02T06:34:34;40.17;;;22.75;;
22318;SDS011;11327;52.334;9.506;2024-03-02T06:37:55;36.53;;;21.30;;
22318;SDS011;11327;52.334;9.506;2024-03-02T06:41:16;37.85;;;22.37;;
22318;SDS011;11327;52.334;9.506;2024-03-02T06:44:36;36.65;;;21.30;;
22318;SDS011;11327;52.334;9.506;2024-03-02T06:47:57;37.75;;;21.37;;
22318;SDS011;11327;52.334;9.506;2024-03-02T06:51:18;36.80;;;20.90;;
22318;SDS011;11327;52.334;9.506;2024-03-02T06:54:38;36.48;;;21.07;;
22318;SDS011;11327;52.334;9.506;2024-03-02T06:57:59;38.23;;;21.52;;
22318;SDS011;11327;52.334;9.506;2024-03-02T07:01:20;35.52;;;20.62;;
22318;SDS011;11327;52.334;9.506;2024-03-02T07:04:40;40.23;;;22.42;;
22318;SDS011;11327;52.334;9.506;2024-03-02T07:08:01;37.45;;;22.13;;
22318;SDS011;11327;52.334;9.506;2024-03-02T07:11:23;37.13;;;21.60;;
22318;SDS011;11327;52.334;9.506;2024-03-02T07:14:44;39.55;;;21.57;;
22318;SDS011;11327;52.334;9.506;2024-03-02T07:18:25;36.75;;;21.52;;
22318;SDS011;11327;52.334;9.506;2024-03-02T07:21:45;37.75;;;21.97;;
22318;SDS011;11327;52.334;9.506;2024-03-02T07:25:06;40.23;;;22.00;;
22318;SDS011;11327;52.334;9.506;2024-03-02T07:28:27;38.05;;;21.60;;
22318;SDS011;11327;52.334;9.506;2024-03-02T07:31:48;36.13;;;21.62;;
22318;SDS011;11327;52.334;9.506;2024-03-02T07:35:09;36.50;;;21.65;;
22318;SDS011;11327;52.334;9.506;2024-03-02T07:38:30;36.30;;;22.30;;
22318;SDS011;11327;52.334;9.506;2024-03-02T07:41:52;36.25;;;21.35;;
22318;SDS011;11327;52.334;9.506;2024-03-02T07:45:12;38.53;;;21.77;;
22318;SDS011;11327;52.334;9.506;2024-03-02T07:48:33;31.33;;;18.02;;
22318;SDS011;11327;52.334;9.506;2024-03-02T07:51:54;27.15;;;16.20;;
22318;SDS011;11327;52.334;9.506;2024-03-02T07:55:15;26.10;;;15.80;;
22318;SDS011;11327;52.334;9.506;2024-03-02T07:58:37;25.20;;;15.80;;
22318;SDS011;11327;52.334;9.506;2024-03-02T08:01:59;23.35;;;14.60;;
22318;SDS011;11327;52.334;9.506;2024-03-02T08:05:21;20.12;;;12.60;;
22318;SDS011;11327;52.334;9.506;2024-03-02T08:08:41;18.00;;;11.20;;
22318;SDS011;11327;52.334;9.506;2024-03-02T08:12:02;18.30;;;12.23;;
22318;SDS011;11327;52.334;9.506;2024-03-02T08:15:23;21.25;;;13.62;;
22318;SDS011;11327;52.334;9.506;2024-03-02T08:18:44;19.17;;;12.85;;
22318;SDS011;11327;52.334;9.506;2024-03-02T08:22:05;19.35;;;11.95;;
22318;SDS011;11327;52.334;9.506;2024-03-02T08:25:26;20.68;;;12.75;;
22318;SDS011;11327;52.334;9.506;2024-03-02T08:28:46;21.55;;;13.83;;
22318;SDS011;11327;52.334;9.506;2024-03-02T08:32:07;19.10;;;12.50;;
22318;SDS011;11327;52.334;9.506;2024-03-02T08:35:28;19.98;;;11.90;;
22318;SDS011;11327;52.334;9.506;2024-03-02T08:38:49;14.28;;;8.68;;
22318;SDS011;11327;52.334;9.506;2024-03-02T08:42:10;12.37;;;7.60;;
22318;SDS011;11327;52.334;9.506;2024-03-02T08:45:31;11.28;;;7.65;;
22318;SDS011;11327;52.334;9.506;2024-03-02T08:48:52;13.08;;;8.28;;
22318;SDS011;11327;52.334;9.506;2024-03-02T08:52:13;12.90;;;8.10;;
22318;SDS011;11327;52.334;9.506;2024-03-02T08:55:33;12.00;;;7.33;;
22318;SDS011;11327;52.334;9.506;2024-03-02T08:58:54;13.65;;;8.40;;
22318;SDS011;11327;52.334;9.506;2024-03-02T09:02:15;12.68;;;8.10;;
22318;SDS011;11327;52.334;9.506;2024-03-02T09:05:35;14.18;;;8.30;;
22318;SDS011;11327;52.334;9.506;2024-03-02T09:08:56;10.90;;;7.45;;
22318;SDS011;11327;52.334;9.506;2024-03-02T09:12:17;11.55;;;7.65;;
22318;SDS011;11327;52.334;9.506;2024-03-02T09:15:38;11.95;;;8.33;;
22318;SDS011;11327;52.334;9.506;2024-03-02T09:19:00;12.65;;;8.13;;
22318;SDS011;11327;52.334;9.506;2024-03-02T09:22:21;13.62;;;8.88;;
22318;SDS011;11327;52.334;9.506;2024-03-02T09:25:42;15.63;;;9.15;;
22318;SDS011;11327;52.334;9.506;2024-03-02T09:29:03;14.75;;;8.78;;
22318;SDS011;11327;52.334;9.506;2024-03-02T09:32:23;14.35;;;8.65;;
22318;SDS011;11327;52.334;9.506;2024-03-02T09:35:44;11.85;;;7.78;;
22318;SDS011;11327;52.334;9.506;2024-03-02T09:39:07;12.30;;;8.35;;
22318;SDS011;11327;52.334;9.506;2024-03-02T09:42:29;13.08;;;8.60;;
22318;SDS011;11327;52.334;9.506;2024-03-02T09:45:50;12.23;;;8.63;;
22318;SDS011;11327;52.334;9.506;2024-03-02T09:49:12;11.18;;;7.78;;
22318;SDS011;11327;52.334;9.506;2024-03-02T09:52:33;12.23;;;7.97;;
22318;SDS011;11327;52.334;9.506;2024-03-02T09:55:54;11.93;;;7.80;;
22318;SDS011;11327;52.334;9.506;2024-03-02T09:59:15;13.08;;;8.80;;
22318;SDS011;11327;52.334;9.506;2024-03-02T10:02:37;11.45;;;7.87;;
22318;SDS011;11327;52.334;9.506;2024-03-02T10:06:16;10.08;;;7.25;;
22318;SDS011;11327;52.334;9.506;2024-03-02T10:09:34;10.95;;;6.83;;
22318;SDS011;11327;52.334;9.506;2024-03-02T10:13:04;9.30;;;6.62;;
22318;SDS011;11327;52.334;9.506;2024-03-02T10:16:27;9.73;;;6.85;;
22318;SDS011;11327;52.334;9.506;2024-03-02T10:19:48;10.35;;;7.12;;
22318;SDS011;11327;52.334;9.506;2024-03-02T10:23:09;12.58;;;7.95;;
22318;SDS011;11327;52.334;9.506;2024-03-02T10:26:30;12.15;;;8.30;;
22318;SDS011;11327;52.334;9.506;2024-03-02T10:29:51;9.63;;;6.87;;
22318;SDS011;11327;52.334;9.506;2024-03-02T10:33:12;10.30;;;6.80;;
22318;SDS011;11327;52.334;9.506;2024-03-02T10:36:33;10.85;;;6.72;;
22318;SDS011;11327;52.334;9.506;2024-03-02T10:40:03;8.55;;;5.90;;
22318;SDS011;11327;52.334;9.506;2024-03-02T10:43:22;8.75;;;5.20;;
22318;SDS011;11327;52.334;9.506;2024-03-02T10:46:43;8.68;;;5.00;;
22318;SDS011;11327;52.334;9.506;2024-03-02T10:50:06;6.45;;;4.42;;
22318;SDS011;11327;52.334;9.506;2024-03-02T10:53:28;7.00;;;4.30;;
22318;SDS011;11327;52.334;9.506;2024-03-02T10:56:49;6.95;;;4.08;;
22318;SDS011;11327;52.334;9.506;2024-03-02T11:00:11;9.35;;;4.45;;
22318;SDS011;11327;52.334;9.506;2024-03-02T11:03:35;7.58;;;4.70;;
22318;SDS011;11327;52.334;9.506;2024-03-02T11:07:00;6.42;;;3.80;;
22318;SDS011;11327;52.334;9.506;2024-03-02T11:10:31;6.10;;;4.30;;
22318;SDS011;11327;52.334;9.506;2024-03-02T11:13:53;8.08;;;4.10;;
22318;SDS011;11327;52.334;9.506;2024-03-02T11:17:19;5.85;;;4.10;;
22318;SDS011;11327;52.334;9.506;2024-03-02T11:20:40;7.08;;;4.53;;
22318;SDS011;11327;52.334;9.506;2024-03-02T11:31:10;9.35;;;6.45;;
22318;SDS011;11327;52.334;9.506;2024-03-02T11:34:31;7.47;;;5.37;;
22318;SDS011;11327;52.334;9.506;2024-03-02T11:37:54;4.97;;;3.77;;
22318;SDS011;11327;52.334;9.506;2024-03-02T11:41:15;5.47;;;3.70;;
22318;SDS011;11327;52.334;9.506;2024-03-02T11:44:36;6.97;;;3.90;;
22318;SDS011;11327;52.334;9.506;2024-03-02T11:47:57;6.45;;;3.45;;
22318;SDS011;11327;52.334;9.506;2024-03-02T11:51:19;4.62;;;3.00;;
22318;SDS011;11327;52.334;9.506;2024-03-02T11:54:41;4.55;;;2.87;;
22318;SDS011;11327;52.334;9.506;2024-03-02T11:58:10;8.95;;;5.87;;
22318;SDS011;11327;52.334;9.506;2024-03-02T12:01:34;12.58;;;8.15;;
22318;SDS011;11327;52.334;9.506;2024-03-02T12:04:55;11.33;;;7.65;;
22318;SDS011;11327;52.334;9.506;2024-03-02T12:08:17;10.15;;;7.22;;
22318;SDS011;11327;52.334;9.506;2024-03-02T12:11:38;11.53;;;8.35;;
22318;SDS011;11327;52.334;9.506;2024-03-02T12:14:58;11.83;;;7.90;;
22318;SDS011;11327;52.334;9.506;2024-03-02T12:18:21;12.28;;;7.95;;
22318;SDS011;11327;52.334;9.506;2024-03-02T12:21:41;11.78;;;7.80;;
22318;SDS011;11327;52.334;9.506;2024-03-02T12:25:02;12.35;;;8.38;;
22318;SDS011;11327;52.334;9.506;2024-03-02T12:28:23;12.07;;;7.70;;
22318;SDS011;11327;52.334;9.506;2024-03-02T12:31:44;10.75;;;7.67;;
22318;SDS011;11327;52.334;9.506;2024-03-02T12:35:05;12.05;;;8.15;;
22318;SDS011;11327;52.334;9.506;2024-03-02T12:38:27;9.80;;;7.53;;
22318;SDS011;11327;52.334;9.506;2024-03-02T12:41:47;10.95;;;6.80;;
22318;SDS011;11327;52.334;9.506;2024-03-02T12:45:10;9.35;;;6.83;;
22318;SDS011;11327;52.334;9.506;2024-03-02T12:48:32;9.98;;;6.67;;
22318;SDS011;11327;52.334;9.506;2024-03-02T12:51:53;11.33;;;7.37;;
22318;SDS011;11327;52.334;9.506;2024-03-02T12:55:14;9.48;;;7.00;;
22318;SDS011;11327;52.334;9.506;2024-03-02T12:58:38;10.28;;;7.97;;
22318;SDS011;11327;52.334;9.506;2024-03-02T13:02:01;12.07;;;8.00;;
22318;SDS011;11327;52.334;9.506;2024-03-02T13:05:22;12.30;;;8.38;;
22318;SDS011;11327;52.334;9.506;2024-03-02T13:08:44;12.18;;;7.90;;
22318;SDS011;11327;52.334;9.506;2024-03-02T13:12:05;10.95;;;8.15;;
22318;SDS011;11327;52.334;9.506;2024-03-02T13:15:27;11.05;;;8.28;;
22318;SDS011;11327;52.334;9.506;2024-03-02T13:18:48;12.23;;;8.48;;
22318;SDS011;11327;52.334;9.506;2024-03-02T13:22:09;11.80;;;8.28;;
22318;SDS011;11327;52.334;9.506;2024-03-02T13:25:30;11.33;;;7.97;;
22318;SDS011;11327;52.334;9.506;2024-03-02T13:28:51;14.38;;;8.48;;
22318;SDS011;11327;52.334;9.506;2024-03-02T13:32:12;12.20;;;8.33;;
22318;SDS011;11327;52.334;9.506;2024-03-02T13:35:34;11.60;;;8.23;;
22318;SDS011;11327;52.334;9.506;2024-03-02T13:38:54;12.30;;;8.60;;
22318;SDS011;11327;52.334;9.506;2024-03-02T13:42:15;11.63;;;8.65;;
22318;SDS011;11327;52.334;9.506;2024-03-02T13:45:36;11.90;;;8.10;;
22318;SDS011;11327;52.334;9.506;2024-03-02T13:48:57;11.45;;;8.23;;
22318;SDS011;11327;52.334;9.506;2024-03-02T13:52:18;10.68;;;7.90;;
22318;SDS011;11327;52.334;9.506;2024-03-02T13:55:38;9.90;;;7.40;;
22318;SDS011;11327;52.334;9.506;2024-03-02T13:59:00;10.60;;;7.35;;
22318;SDS011;11327;52.334;9.506;2024-03-02T14:02:21;9.75;;;6.80;;
22318;SDS011;11327;52.334;9.506;2024-03-02T14:05:42;9.65;;;6.78;;
22318;SDS011;11327;52.334;9.506;2024-03-02T14:09:03;11.12;;;7.35;;
22318;SDS011;11327;52.334;9.506;2024-03-02T14:12:24;12.18;;;7.12;;
22318;SDS011;11327;52.334;9.506;2024-03-02T14:15:45;11.08;;;7.15;;
22318;SDS011;11327;52.334;9.506;2024-03-02T14:19:06;9.30;;;6.60;;
22318;SDS011;11327;52.334;9.506;2024-03-02T14:22:26;10.38;;;6.92;;
22318;SDS011;11327;52.334;9.506;2024-03-02T14:25:47;8.30;;;6.30;;
22318;SDS011;11327;52.334;9.506;2024-03-02T14:29:08;8.55;;;6.15;;
22318;SDS011;11327;52.334;9.506;2024-03-02T14:32:30;10.08;;;6.35;;
22318;SDS011;11327;52.334;9.506;2024-03-02T14:35:50;8.85;;;5.83;;
22318;SDS011;11327;52.334;9.506;2024-03-02T14:39:11;8.75;;;6.58;;
22318;SDS011;11327;52.334;9.506;2024-03-02T14:42:32;9.60;;;6.60;;
22318;SDS011;11327;52.334;9.506;2024-03-02T14:45:53;8.63;;;5.67;;
22318;SDS011;11327;52.334;9.506;2024-03-02T14:49:14;8.28;;;6.00;;
22318;SDS011;11327;52.334;9.506;2024-03-02T14:52:35;8.18;;;6.00;;
22318;SDS011;11327;52.334;9.506;2024-03-02T14:55:56;8.65;;;5.67;;
22318;SDS011;11327;52.334;9.506;2024-03-02T14:59:17;8.15;;;5.65;;
22318;SDS011;11327;52.334;9.506;2024-03-02T15:02:38;6.78;;;5.30;;
22318;SDS011;11327;52.334;9.506;2024-03-02T15:05:59;7.70;;;5.50;;
22318;SDS011;11327;52.334;9.506;2024-03-02T15:09:20;6.53;;;5.10;;
22318;SDS011;11327;52.334;9.506;2024-03-02T15:12:40;6.83;;;5.08;;
22318;SDS011;11327;52.334;9.506;2024-03-02T15:16:01;7.75;;;4.70;;
22318;SDS011;11327;52.334;9.506;2024-03-02T15:19:22;6.97;;;4.95;;
22318;SDS011;11327;52.334;9.506;2024-03-02T15:22:43;7.33;;;4.92;;
22318;SDS011;11327;52.334;9.506;2024-03-02T15:26:03;6.78;;;4.78;;
22318;SDS011;11327;52.334;9.506;2024-03-02T15:29:24;7.58;;;4.42;;
22318;SDS011;11327;52.334;9.506;2024-03-02T15:32:47;7.20;;;4.70;;
22318;SDS011;11327;52.334;9.506;2024-03-02T15:36:08;5.55;;;4.15;;
22318;SDS011;11327;52.334;9.506;2024-03-02T15:39:28;7.80;;;5.00;;
22318;SDS011;11327;52.334;9.506;2024-03-02T15:42:49;6.50;;;4.42;;
22318;SDS011;11327;52.334;9.506;2024-03-02T15:46:10;7.05;;;4.85;;
22318;SDS011;11327;52.334;9.506;2024-03-02T15:49:30;6.20;;;4.30;;
22318;SDS011;11327;52.334;9.506;2024-03-02T15:52:52;6.53;;;4.60;;
22318;SDS011;11327;52.334;9.506;2024-03-02T15:56:15;6.47;;;4.80;;
22318;SDS011;11327;52.334;9.506;2024-03-02T15:59:35;7.10;;;4.83;;
22318;SDS011;11327;52.334;9.506;2024-03-02T16:02:56;6.97;;;4.97;;
22318;SDS011;11327;52.334;9.506;2024-03-02T16:06:17;7.72;;;5.15;;
22318;SDS011;11327;52.334;9.506;2024-03-02T16:09:37;7.85;;;5.37;;
22318;SDS011;11327;52.334;9.506;2024-03-02T16:12:58;8.10;;;5.42;;
22318;SDS011;11327;52.334;9.506;2024-03-02T16:16:20;7.47;;;5.55;;
22318;SDS011;11327;52.334;9.506;2024-03-02T16:19:41;9.08;;;5.85;;
22318;SDS011;11327;52.334;9.506;2024-03-02T16:23:02;7.22;;;5.58;;
22318;SDS011;11327;52.334;9.506;2024-03-02T16:30:03;7.55;;;5.72;;
22318;SDS011;11327;52.334;9.506;2024-03-02T16:33:25;7.92;;;5.42;;
22318;SDS011;11327;52.334;9.506;2024-03-02T16:36:46;8.80;;;6.58;;
22318;SDS011;11327;52.334;9.506;2024-03-02T16:40:07;14.28;;;12.88;;
22318;SDS011;11327;52.334;9.506;2024-03-02T16:43:28;11.78;;;9.73;;
22318;SDS011;11327;52.334;9.506;2024-03-02T16:46:49;8.13;;;5.83;;
22318;SDS011;11327;52.334;9.506;2024-03-02T16:50:09;7.95;;;5.50;;
22318;SDS011;11327;52.334;9.506;2024-03-02T16:53:33;8.45;;;6.05;;
22318;SDS011;11327;52.334;9.506;2024-03-02T16:56:54;9.08;;;6.00;;
22318;SDS011;11327;52.334;9.506;2024-03-02T17:00:15;9.38;;;6.35;;
22318;SDS011;11327;52.334;9.506;2024-03-02T17:03:36;8.03;;;5.40;;
22318;SDS011;11327;52.334;9.506;2024-03-02T17:06:57;9.38;;;6.35;;
22318;SDS011;11327;52.334;9.506;2024-03-02T17:10:18;8.58;;;6.40;;
22318;SDS011;11327;52.334;9.506;2024-03-02T17:13:38;9.43;;;6.30;;
22318;SDS011;11327;52.334;9.506;2024-03-02T17:16:59;10.10;;;6.55;;
22318;SDS011;11327;52.334;9.506;2024-03-02T17:20:21;11.48;;;8.13;;
22318;SDS011;11327;52.334;9.506;2024-03-02T17:23:41;16.37;;;11.33;;
22318;SDS011;11327;52.334;9.506;2024-03-02T17:27:02;14.85;;;11.30;;
22318;SDS011;11327;52.334;9.506;2024-03-02T17:30:23;11.25;;;8.98;;
22318;SDS011;11327;52.334;9.506;2024-03-02T17:33:44;8.93;;;7.03;;
22318;SDS011;11327;52.334;9.506;2024-03-02T17:37:04;10.58;;;6.90;;
22318;SDS011;11327;52.334;9.506;2024-03-02T17:40:25;10.40;;;6.65;;
22318;SDS011;11327;52.334;9.506;2024-03-02T17:43:46;10.05;;;6.83;;
22318;SDS011;11327;52.334;9.506;2024-03-02T17:47:07;10.60;;;7.15;;
22318;SDS011;11327;52.334;9.506;2024-03-02T17:50:28;10.35;;;7.35;;
22318;SDS011;11327;52.334;9.506;2024-03-02T17:53:49;10.13;;;6.58;;
22318;SDS011;11327;52.334;9.506;2024-03-02T17:57:10;10.63;;;7.15;;
22318;SDS011;11327;52.334;9.506;2024-03-02T18:00:30;10.93;;;7.20;;
22318;SDS011;11327;52.334;9.506;2024-03-02T18:03:51;10.35;;;6.97;;
22318;SDS011;11327;52.334;9.506;2024-03-02T18:07:12;9.95;;;6.97;;
22318;SDS011;11327;52.334;9.506;2024-03-02T18:10:33;10.55;;;6.97;;
22318;SDS011;11327;52.334;9.506;2024-03-02T18:13:54;9.53;;;6.53;;
22318;SDS011;11327;52.334;9.506;2024-03-02T18:17:14;9.50;;;6.08;;
22318;SDS011;11327;52.334;9.506;2024-03-02T18:20:35;8.33;;;6.42;;
22318;SDS011;11327;52.334;9.506;2024-03-02T18:23:56;10.63;;;6.80;;
22318;SDS011;11327;52.334;9.506;2024-03-02T18:27:16;8.43;;;6.22;;
22318;SDS011;11327;52.334;9.506;2024-03-02T18:30:38;11.05;;;6.72;;
22318;SDS011;11327;52.334;9.506;2024-03-02T18:33:59;9.28;;;6.97;;
22318;SDS011;11327;52.334;9.506;2024-03-02T18:37:19;10.05;;;6.72;;
22318;SDS011;11327;52.334;9.506;2024-03-02T18:40:42;8.68;;;6.05;;
22318;SDS011;11327;52.334;9.506;2024-03-02T18:44:04;8.20;;;6.35;;
22318;SDS011;11327;52.334;9.506;2024-03-02T18:47:25;21.75;;;13.38;;
22318;SDS011;11327;52.334;9.506;2024-03-02T18:50:47;17.62;;;11.25;;
22318;SDS011;11327;52.334;9.506;2024-03-02T18:54:08;10.28;;;6.95;;
22318;SDS011;11327;52.334;9.506;2024-03-02T18:57:29;10.45;;;6.20;;
22318;SDS011;11327;52.334;9.506;2024-03-02T19:00:50;11.45;;;6.58;;
22318;SDS011;11327;52.334;9.506;2024-03-02T19:04:11;8.03;;;5.65;;
22318;SDS011;11327;52.334;9.506;2024-03-02T19:07:31;10.55;;;7.37;;
22318;SDS011;11327;52.334;9.506;2024-03-02T19:10:52;11.30;;;7.30;;
22318;SDS011;11327;52.334;9.506;2024-03-02T19:14:13;9.90;;;6.97;;
22318;SDS011;11327;52.334;9.506;2024-03-02T19:17:34;9.83;;;7.20;;
22318;SDS011;11327;52.334;9.506;2024-03-02T19:20:55;10.63;;;7.58;;
22318;SDS011;11327;52.334;9.506;2024-03-02T19:24:15;13.65;;;7.40;;
22318;SDS011;11327;52.334;9.506;2024-03-02T19:27:36;11.95;;;8.43;;
22318;SDS011;11327;52.334;9.506;2024-03-02T19:30:57;11.18;;;7.45;;
22318;SDS011;11327;52.334;9.506;2024-03-02T19:34:18;12.10;;;7.85;;
22318;SDS011;11327;52.334;9.506;2024-03-02T19:37:40;10.78;;;7.78;;
22318;SDS011;11327;52.334;9.506;2024-03-02T19:41:01;12.82;;;7.90;;
22318;SDS011;11327;52.334;9.506;2024-03-02T19:44:22;12.18;;;7.90;;
22318;SDS011;11327;52.334;9.506;2024-03-02T19:47:45;10.80;;;7.28;;
22318;SDS011;11327;52.334;9.506;2024-03-02T19:51:05;9.75;;;6.87;;
22318;SDS011;11327;52.334;9.506;2024-03-02T19:54:26;11.68;;;7.25;;
22318;SDS011;11327;52.334;9.506;2024-03-02T19:57:47;9.93;;;6.35;;
22318;SDS011;11327;52.334;9.506;2024-03-02T20:01:08;9.58;;;6.17;;
22318;SDS011;11327;52.334;9.506;2024-03-02T20:04:28;9.58;;;5.72;;